createdAt,value
2022-08-05T00:00:20.929Z,9.70
2022-08-05T00:02:51.542Z,9.02
2022-08-05T00:05:27.037Z,12.03
2022-08-05T00:08:32.511Z,9.82
2022-08-05T00:11:00.957Z,13.60
2022-08-05T00:13:39.335Z,10.60
2022-08-05T00:16:08.836Z,10.25
2022-08-05T00:18:37.962Z,11.13
2022-08-05T00:21:07.005Z,10.60
2022-08-05T00:23:46.196Z,13.70
2022-08-05T00:26:20.946Z,8.80
2022-08-05T00:28:50.355Z,11.40
2022-08-05T00:31:53.763Z,10.68
2022-08-05T00:34:54.360Z,9.93
2022-08-05T00:37:13.204Z,12.32
2022-08-05T00:39:57.120Z,11.02
2022-08-05T00:42:37.339Z,11.60
2022-08-05T00:45:11.509Z,11.52
2022-08-05T00:47:56.301Z,9.40
2022-08-05T00:50:26.036Z,12.15
2022-08-05T00:52:55.146Z,8.23
2022-08-05T00:55:23.023Z,16.95
2022-08-05T00:58:02.653Z,9.52
2022-08-05T01:00:32.493Z,15.02
2022-08-05T01:03:01.395Z,10.82
2022-08-05T01:05:36.131Z,12.68
2022-08-05T01:08:41.697Z,13.32
2022-08-05T01:11:02.017Z,11.93
2022-08-05T01:13:57.906Z,10.20
2022-08-05T01:16:29.298Z,10.68
2022-08-05T01:19:00.874Z,13.10
2022-08-05T01:21:38.050Z,15.23
2022-08-05T01:24:26.247Z,11.07
2022-08-05T01:26:57.489Z,12.38
2022-08-05T01:29:35.371Z,12.40
2022-08-05T01:32:04.320Z,14.20
2022-08-05T01:34:49.680Z,9.20
2022-08-05T01:37:24.592Z,6.57
2022-08-05T01:39:54.911Z,9.35
2022-08-05T01:42:27.377Z,9.52
2022-08-05T01:44:59.241Z,10.25
2022-08-05T01:47:39.468Z,8.98
2022-08-05T01:50:14.979Z,9.77
2022-08-05T01:52:44.175Z,7.72
2022-08-05T01:55:13.658Z,13.07
2022-08-05T01:58:29.870Z,11.75
2022-08-05T02:00:31.070Z,12.45
2022-08-05T02:03:00.918Z,11.48
2022-08-05T02:05:34.368Z,8.05
2022-08-05T02:08:03.487Z,17.17
2022-08-05T02:10:34.827Z,11.00
2022-08-05T02:13:53.273Z,8.27
2022-08-05T02:16:39.704Z,10.20
2022-08-05T02:19:12.743Z,7.30
2022-08-05T02:21:51.943Z,9.60
2022-08-05T02:24:23.377Z,10.85
2022-08-05T02:26:54.571Z,10.18
2022-08-05T02:29:59.810Z,13.68
2022-08-05T02:32:23.737Z,14.38
2022-08-05T02:34:59.696Z,10.95
2022-08-05T02:37:32.078Z,14.98
2022-08-05T02:40:01.887Z,11.27
2022-08-05T02:42:36.017Z,9.38
2022-08-05T02:45:04.121Z,10.52
2022-08-05T02:48:07.389Z,9.90
2022-08-05T02:50:21.990Z,8.40
2022-08-05T02:52:50.992Z,13.93
2022-08-05T02:55:54.967Z,12.88
2022-08-05T02:58:11.821Z,12.65
2022-08-05T03:00:44.066Z,8.95
2022-08-05T03:03:15.865Z,7.60
2022-08-05T03:06:54.597Z,13.23
2022-08-05T03:08:33.704Z,6.80
2022-08-05T03:11:55.380Z,12.02
2022-08-05T03:13:51.139Z,10.98
2022-08-05T03:16:29.441Z,8.52
2022-08-05T03:19:00.845Z,8.13
2022-08-05T03:21:33.168Z,10.68
2022-08-05T03:24:09.829Z,8.60
2022-08-05T03:26:40.865Z,8.07
2022-08-05T03:29:07.988Z,10.20
2022-08-05T03:31:57.262Z,8.43
2022-08-05T03:34:27.867Z,7.38
2022-08-05T03:36:56.062Z,4.05
2022-08-05T03:39:26.880Z,10.38
2022-08-05T03:41:56.328Z,7.63
2022-08-05T03:44:24.320Z,8.75
2022-08-05T03:46:51.492Z,8.85
2022-08-05T03:49:18.679Z,6.43
2022-08-05T03:52:39.199Z,7.95
2022-08-05T03:55:51.034Z,7.72
2022-08-05T03:57:42.231Z,7.38
2022-08-05T04:02:52.305Z,7.93
2022-08-05T04:05:27.984Z,9.77
2022-08-05T04:08:01.904Z,7.78
2022-08-05T04:10:37.706Z,12.18
2022-08-05T04:13:07.371Z,11.23
2022-08-05T04:15:52.767Z,6.55
2022-08-05T04:18:29.344Z,6.18
2022-08-05T04:20:58.135Z,4.60
2022-08-05T04:24:04.836Z,5.80
2022-08-05T04:26:17.691Z,6.72
2022-08-05T04:28:51.221Z,5.82
2022-08-05T04:31:20.094Z,5.68
2022-08-05T04:34:19.236Z,7.53
2022-08-05T04:36:45.674Z,4.43
2022-08-05T04:39:14.140Z,4.20
2022-08-05T04:41:41.360Z,4.63
2022-08-05T04:44:09.250Z,7.97
2022-08-05T04:46:37.734Z,4.75
2022-08-05T04:49:14.458Z,8.90
2022-08-05T04:51:44.199Z,9.43
2022-08-05T04:54:11.998Z,6.15
2022-08-05T04:56:40.563Z,2.75
2022-08-05T04:59:21.607Z,4.85
2022-08-05T05:02:07.670Z,3.58
2022-08-05T05:04:44.172Z,4.53
2022-08-05T05:07:15.882Z,5.40
2022-08-05T05:09:43.310Z,6.35
2022-08-05T05:12:11.782Z,4.65
2022-08-05T05:14:42.700Z,7.38
2022-08-05T05:17:23.323Z,3.67
2022-08-05T05:19:54.677Z,5.20
2022-08-05T05:22:24.472Z,11.70
2022-08-05T05:24:59.806Z,4.18
2022-08-05T05:27:44.793Z,4.38
2022-08-05T05:30:31.357Z,7.38
2022-08-05T05:33:03.880Z,6.55
2022-08-05T05:35:43.163Z,4.65
2022-08-05T05:38:13.201Z,5.90
2022-08-05T05:40:49.876Z,4.80
2022-08-05T05:43:28.114Z,4.50
2022-08-05T05:46:13.663Z,3.90
2022-08-05T05:48:44.394Z,5.22
2022-08-05T05:51:15.189Z,2.90
2022-08-05T05:53:54.047Z,4.03
2022-08-05T05:56:32.486Z,6.95
2022-08-05T05:59:03.176Z,4.90
2022-08-05T06:01:37.337Z,3.58
2022-08-05T06:04:07.458Z,4.30
2022-08-05T06:06:35.136Z,2.42
2022-08-05T06:09:04.337Z,6.35
2022-08-05T06:11:33.095Z,2.70
2022-08-05T06:14:01.476Z,3.17
2022-08-05T06:16:36.621Z,2.35
2022-08-05T06:19:05.642Z,3.22
2022-08-05T06:21:36.436Z,4.32
2022-08-05T06:24:07.590Z,6.22
2022-08-05T06:26:38.511Z,3.47
2022-08-05T06:29:06.964Z,2.95
2022-08-05T06:31:53.528Z,3.28
2022-08-05T06:34:20.803Z,3.97
2022-08-05T06:36:56.737Z,3.05
2022-08-05T06:39:27.281Z,1.75
2022-08-05T06:41:58.658Z,3.15
2022-08-05T06:46:54.470Z,3.22
2022-08-05T06:50:02.098Z,3.75
2022-08-05T06:52:36.609Z,4.72
2022-08-05T06:54:56.556Z,4.32
2022-08-05T06:57:58.119Z,5.22
2022-08-05T07:00:11.552Z,5.88
2022-08-05T07:02:46.789Z,3.38
2022-08-05T07:05:18.669Z,4.03
2022-08-05T07:07:49.133Z,2.97
2022-08-05T07:10:17.403Z,1.98
2022-08-05T07:13:03.562Z,2.70
2022-08-05T07:16:00.772Z,5.10
2022-08-05T07:18:32.352Z,3.78
2022-08-05T07:21:05.581Z,2.67
2022-08-05T07:23:33.136Z,4.25
2022-08-05T07:26:00.843Z,3.28
2022-08-05T07:28:29.411Z,2.30
2022-08-05T07:30:57.035Z,4.43
2022-08-05T07:33:36.409Z,2.22
2022-08-05T07:36:20.802Z,2.50
2022-08-05T07:38:49.661Z,4.47
2022-08-05T07:42:07.901Z,3.22
2022-08-05T07:44:14.465Z,4.28
2022-08-05T07:46:48.447Z,3.25
2022-08-05T07:49:16.594Z,2.15
2022-08-05T07:51:53.334Z,3.58
2022-08-05T07:54:30.242Z,4.93
2022-08-05T07:57:02.704Z,3.78
2022-08-05T07:59:46.963Z,5.35
2022-08-05T08:02:17.556Z,2.90
2022-08-05T08:04:49.521Z,3.40
2022-08-05T08:07:22.747Z,2.10
2022-08-05T08:09:52.472Z,5.22
2022-08-05T08:12:35.310Z,3.95
2022-08-05T08:15:09.674Z,2.53
2022-08-05T08:17:46.194Z,5.53
2022-08-05T08:20:44.124Z,2.58
2022-08-05T08:23:11.672Z,3.28
2022-08-05T08:26:00.633Z,1.48
2022-08-05T08:28:36.497Z,5.68
2022-08-05T08:31:06.872Z,3.53
2022-08-05T08:33:36.024Z,4.70
2022-08-05T08:38:56.159Z,2.33
2022-08-05T08:41:26.245Z,4.93
2022-08-05T08:45:24.099Z,3.60
2022-08-05T08:47:03.794Z,3.65
2022-08-05T08:50:05.821Z,3.00
2022-08-05T08:52:40.787Z,2.08
2022-08-05T08:55:19.475Z,1.90
2022-08-05T08:58:02.387Z,1.70
2022-08-05T09:00:30.942Z,2.30
2022-08-05T09:02:59.145Z,4.38
2022-08-05T09:05:38.885Z,2.17
2022-08-05T09:08:13.952Z,2.05
2022-08-05T09:10:46.897Z,1.77
2022-08-05T09:13:15.169Z,1.45
2022-08-05T09:15:47.386Z,6.15
2022-08-05T09:18:15.871Z,3.33
2022-08-05T09:20:49.000Z,1.87
2022-08-05T09:23:21.628Z,2.50
2022-08-05T09:26:02.277Z,1.70
2022-08-05T09:28:33.461Z,4.10
2022-08-05T09:31:43.729Z,1.65
2022-08-05T09:33:59.213Z,3.65
2022-08-05T09:36:54.837Z,3.63
2022-08-05T09:39:39.393Z,2.50
2022-08-05T09:42:17.366Z,2.30
2022-08-05T09:44:51.269Z,3.33
2022-08-05T09:47:20.584Z,5.10
2022-08-05T09:50:00.966Z,3.72
2022-08-05T09:52:45.228Z,0.98
2022-08-05T09:55:57.651Z,2.75
2022-08-05T09:58:00.367Z,7.78
2022-08-05T10:00:30.539Z,4.85
2022-08-05T10:02:59.363Z,3.72
2022-08-05T10:05:28.341Z,4.13
2022-08-05T10:08:34.947Z,5.45
2022-08-05T10:10:50.250Z,3.08
2022-08-05T10:13:44.199Z,3.40
2022-08-05T10:16:32.322Z,3.90
2022-08-05T10:19:08.621Z,5.65
2022-08-05T10:21:40.507Z,2.03
2022-08-05T10:24:13.808Z,3.33
2022-08-05T10:26:49.012Z,5.30
2022-08-05T10:29:24.154Z,4.13
2022-08-05T10:32:54.350Z,1.30
2022-08-05T10:34:55.476Z,2.92
2022-08-05T10:37:23.453Z,2.03
2022-08-05T10:40:17.466Z,5.25
2022-08-05T10:42:48.220Z,5.18
2022-08-05T10:45:24.086Z,3.17
2022-08-05T10:48:29.919Z,4.75
2022-08-05T10:51:06.299Z,3.60
2022-08-05T10:53:56.164Z,3.38
2022-08-05T10:56:26.941Z,9.25
2022-08-05T10:58:55.119Z,8.85
2022-08-05T11:01:55.644Z,4.55
2022-08-05T11:04:26.315Z,3.13
2022-08-05T11:07:05.205Z,4.47
2022-08-05T11:09:46.591Z,6.82
2022-08-05T11:12:33.158Z,6.38
2022-08-05T11:15:19.829Z,3.05
2022-08-05T11:17:57.948Z,4.32
2022-08-05T11:20:41.678Z,5.90
2022-08-05T11:23:49.834Z,1.77
2022-08-05T11:26:28.953Z,3.58
2022-08-05T11:29:05.180Z,1.77
2022-08-05T11:31:58.617Z,2.45
2022-08-05T11:34:36.740Z,2.78
2022-08-05T11:38:27.962Z,2.05
2022-08-05T11:40:03.705Z,6.30
2022-08-05T11:42:37.675Z,4.18
2022-08-05T11:45:23.514Z,3.35
2022-08-05T11:47:55.174Z,4.97
2022-08-05T11:50:23.219Z,1.95
2022-08-05T11:52:57.999Z,2.50
2022-08-05T11:55:32.355Z,5.03
2022-08-05T11:58:09.499Z,2.25
2022-08-05T12:00:41.139Z,5.10
2022-08-05T12:03:28.529Z,2.78
2022-08-05T12:06:06.495Z,4.82
2022-08-05T12:08:49.971Z,3.30
2022-08-05T12:11:23.279Z,6.70
2022-08-05T12:14:17.166Z,1.65
2022-08-05T12:16:48.464Z,1.67
2022-08-05T12:22:05.568Z,2.45
2022-08-05T12:24:53.089Z,2.33
2022-08-05T12:27:25.503Z,3.72
2022-08-05T12:30:03.310Z,4.75
2022-08-05T12:32:35.310Z,2.17
2022-08-05T12:35:05.943Z,2.60
2022-08-05T12:37:36.050Z,2.90
2022-08-05T12:40:10.698Z,3.03
2022-08-05T12:42:39.980Z,8.38
2022-08-05T12:45:09.397Z,5.25
2022-08-05T12:47:37.694Z,5.30
2022-08-05T12:50:17.428Z,2.13
2022-08-05T12:52:57.905Z,2.58
2022-08-05T12:55:28.220Z,4.00
2022-08-05T12:58:49.716Z,3.40
2022-08-05T13:02:02.756Z,4.18
2022-08-05T13:03:41.388Z,2.13
2022-08-05T13:06:12.944Z,3.13
2022-08-05T13:08:40.442Z,2.33
2022-08-05T13:11:07.987Z,1.80
2022-08-05T13:14:06.602Z,5.13
2022-08-05T13:18:58.458Z,3.40
2022-08-05T13:21:27.888Z,3.20
2022-08-05T13:23:56.078Z,7.53
2022-08-05T13:26:30.201Z,4.38
2022-08-05T13:28:58.977Z,1.35
2022-08-05T13:32:03.752Z,2.92
2022-08-05T13:34:21.627Z,4.03
2022-08-05T13:36:53.191Z,2.60
2022-08-05T13:40:13.801Z,1.92
2022-08-05T13:42:14.798Z,6.90
2022-08-05T13:44:45.376Z,5.68
2022-08-05T13:47:35.625Z,1.95
2022-08-05T13:50:06.843Z,2.28
2022-08-05T13:52:38.698Z,3.10
2022-08-05T13:55:09.828Z,5.40
2022-08-05T13:57:49.049Z,4.50
2022-08-05T14:00:27.620Z,2.35
2022-08-05T14:02:56.284Z,1.90
2022-08-05T14:05:47.892Z,3.35
2022-08-05T14:08:20.850Z,4.95
2022-08-05T14:10:54.383Z,4.47
2022-08-05T14:13:32.276Z,3.10
2022-08-05T14:16:04.343Z,4.30
2022-08-05T14:18:38.107Z,3.15
2022-08-05T14:22:08.511Z,4.13
2022-08-05T14:23:52.865Z,1.83
2022-08-05T14:26:38.286Z,2.33
2022-08-05T14:29:15.991Z,6.25
2022-08-05T14:32:02.748Z,7.80
2022-08-05T14:34:35.441Z,2.72
2022-08-05T14:37:03.808Z,3.50
2022-08-05T14:39:49.536Z,2.47
2022-08-05T14:42:21.812Z,4.25
2022-08-05T14:44:49.587Z,3.05
2022-08-05T14:47:17.250Z,5.93
2022-08-05T14:50:18.146Z,4.03
2022-08-05T14:52:53.479Z,7.15
2022-08-05T14:55:25.105Z,3.58
2022-08-05T14:57:56.184Z,2.80
2022-08-05T15:00:28.103Z,3.72
2022-08-05T15:02:56.946Z,3.55
2022-08-05T15:05:29.793Z,8.20
2022-08-05T15:08:11.225Z,3.83
2022-08-05T15:10:46.265Z,4.10
2022-08-05T15:13:14.402Z,4.40
2022-08-05T15:15:55.661Z,1.95
2022-08-05T15:18:25.049Z,2.42
2022-08-05T15:20:52.379Z,1.70
2022-08-05T15:23:19.942Z,2.63
2022-08-05T15:25:52.906Z,4.22
2022-08-05T15:28:24.277Z,3.70
2022-08-05T15:30:54.959Z,1.38
2022-08-05T15:34:19.468Z,3.50
2022-08-05T15:36:17.497Z,5.90
2022-08-05T15:40:41.283Z,4.20
2022-08-05T15:41:58.045Z,3.78
2022-08-05T15:44:27.953Z,2.55
2022-08-05T15:46:57.868Z,5.40
2022-08-05T15:49:53.726Z,3.75
2022-08-05T15:52:16.589Z,4.88
2022-08-05T15:54:57.045Z,3.42
2022-08-05T15:57:25.693Z,5.75
2022-08-05T16:00:00.352Z,4.20
2022-08-05T16:02:30.017Z,8.00
2022-08-05T16:04:57.858Z,2.67
2022-08-05T16:07:25.426Z,4.43
2022-08-05T16:09:57.030Z,4.10
2022-08-05T16:12:24.631Z,9.23
2022-08-05T16:14:51.995Z,5.22
2022-08-05T16:17:19.619Z,5.32
2022-08-05T16:20:05.658Z,4.78
2022-08-05T16:22:34.699Z,4.07
2022-08-05T16:25:05.387Z,4.85
2022-08-05T16:28:00.292Z,4.43
2022-08-05T16:30:26.239Z,4.32
2022-08-05T16:32:56.086Z,8.65
2022-08-05T16:35:27.608Z,5.65
2022-08-05T16:38:03.236Z,7.55
2022-08-05T16:40:51.789Z,7.80
2022-08-05T16:43:23.816Z,8.77
2022-08-05T16:46:03.790Z,4.80
2022-08-05T16:48:38.762Z,16.30
2022-08-05T16:51:09.298Z,4.00
2022-08-05T16:54:02.950Z,6.50
2022-08-05T16:56:25.514Z,7.93
2022-08-05T16:58:53.132Z,5.18
2022-08-05T17:01:20.830Z,5.50
2022-08-05T17:03:48.143Z,4.43
2022-08-05T17:06:16.572Z,8.32
2022-08-05T17:08:53.405Z,3.45
2022-08-05T17:11:23.317Z,6.20
2022-08-05T17:14:00.509Z,4.60
2022-08-05T17:16:36.467Z,6.50
2022-08-05T17:19:07.828Z,4.93
2022-08-05T17:21:39.808Z,5.32
2022-08-05T17:24:19.718Z,6.88
2022-08-05T17:26:56.701Z,6.43
2022-08-05T17:29:33.059Z,10.27
2022-08-05T17:32:01.731Z,3.63
2022-08-05T17:34:30.045Z,6.28
2022-08-05T17:39:34.403Z,5.97
2022-08-05T17:42:17.352Z,12.48
2022-08-05T17:44:51.354Z,6.72
2022-08-05T17:47:21.954Z,7.35
2022-08-05T17:50:03.811Z,6.93
2022-08-05T17:52:32.590Z,7.15
2022-08-05T17:55:00.181Z,8.60
2022-08-05T17:57:28.307Z,7.97
2022-08-05T18:00:03.685Z,9.10
2022-08-05T18:02:36.449Z,11.25
2022-08-05T18:05:07.700Z,12.07
2022-08-05T18:07:41.157Z,9.32
2022-08-05T18:10:10.782Z,3.90
2022-08-05T18:12:38.492Z,7.15
2022-08-05T18:15:06.466Z,13.30
2022-08-05T18:18:01.655Z,3.60
2022-08-05T18:20:29.669Z,3.85
2022-08-05T18:23:12.077Z,4.95
2022-08-05T18:25:44.954Z,8.90
2022-08-05T18:28:16.247Z,10.43
2022-08-05T18:30:45.363Z,5.63
2022-08-05T18:33:14.768Z,6.97
2022-08-05T18:35:59.713Z,5.47
2022-08-05T18:38:28.784Z,5.20
2022-08-05T18:41:56.092Z,4.22
2022-08-05T18:43:48.626Z,2.88
2022-08-05T18:46:21.805Z,4.03
2022-08-05T18:48:53.926Z,3.85
2022-08-05T18:52:06.556Z,6.70
2022-08-05T18:54:31.626Z,5.32
2022-08-05T18:57:02.455Z,4.40
2022-08-05T18:59:44.279Z,4.07
2022-08-05T19:02:28.061Z,8.82
2022-08-05T19:05:01.516Z,3.90
2022-08-05T19:07:45.541Z,4.90
2022-08-05T19:10:13.842Z,5.85
2022-08-05T19:12:41.171Z,2.72
2022-08-05T19:15:10.628Z,4.20
2022-08-05T19:18:09.181Z,7.25
2022-08-05T19:20:41.466Z,9.05
2022-08-05T19:24:03.774Z,6.72
2022-08-05T19:26:01.877Z,10.18
2022-08-05T19:28:32.837Z,7.47
2022-08-05T19:31:05.897Z,5.13
2022-08-05T19:33:36.859Z,8.95
2022-08-05T19:36:12.304Z,4.90
2022-08-05T19:38:44.036Z,4.70
2022-08-05T19:41:12.110Z,4.10
2022-08-05T19:44:06.792Z,6.57
2022-08-05T19:46:30.991Z,6.90
2022-08-05T19:49:03.513Z,6.97
2022-08-05T19:52:04.895Z,7.30
2022-08-05T19:54:25.547Z,3.95
2022-08-05T19:56:58.785Z,10.20
2022-08-05T20:00:01.334Z,7.63
2022-08-05T20:02:14.713Z,10.90
2022-08-05T20:04:43.155Z,7.28
2022-08-05T20:07:15.062Z,12.05
2022-08-05T20:09:54.687Z,5.40
2022-08-05T20:12:25.041Z,7.55
2022-08-05T20:14:53.230Z,10.55
2022-08-05T20:17:24.023Z,5.03
2022-08-05T20:19:56.634Z,7.50
2022-08-05T20:22:26.750Z,8.85
2022-08-05T20:24:55.647Z,6.55
2022-08-05T20:27:26.646Z,5.70
2022-08-05T20:29:58.445Z,5.93
2022-08-05T20:32:27.667Z,5.80
2022-08-05T20:34:55.335Z,7.90
2022-08-05T20:38:06.669Z,7.32
2022-08-05T20:40:11.100Z,7.47
2022-08-05T20:42:39.533Z,6.80
2022-08-05T20:45:07.679Z,6.43
2022-08-05T20:47:40.100Z,6.22
2022-08-05T20:50:08.342Z,6.30
2022-08-05T20:55:56.551Z,9.25
2022-08-05T20:57:54.931Z,5.50
2022-08-05T21:00:44.422Z,9.35
2022-08-05T21:03:12.019Z,7.38
2022-08-05T21:05:53.829Z,7.15
2022-08-05T21:08:26.921Z,9.05
2022-08-05T21:11:12.130Z,10.45
2022-08-05T21:13:48.262Z,5.25
2022-08-05T21:16:29.068Z,8.88
2022-08-05T21:19:00.137Z,4.53
2022-08-05T21:21:44.493Z,7.35
2022-08-05T21:24:16.886Z,5.32
2022-08-05T21:26:53.532Z,3.58
2022-08-05T21:29:31.961Z,4.10
2022-08-05T21:32:00.373Z,6.18
2022-08-05T21:34:28.205Z,12.25
2022-08-05T21:36:55.835Z,8.32
2022-08-05T21:39:26.529Z,5.20
2022-08-05T21:42:00.934Z,8.95
2022-08-05T21:44:29.028Z,5.82
2022-08-05T21:46:58.248Z,9.80
2022-08-05T21:49:48.078Z,13.23
2022-08-05T21:52:21.904Z,6.40
2022-08-05T21:54:56.036Z,11.88
2022-08-05T21:57:32.353Z,9.70
2022-08-05T22:00:05.977Z,8.35
2022-08-05T22:02:34.157Z,6.60
2022-08-05T22:05:01.712Z,7.60
2022-08-05T22:07:39.940Z,9.17
2022-08-05T22:10:26.658Z,4.28
2022-08-05T22:12:57.404Z,3.58
2022-08-05T22:16:01.991Z,4.90
2022-08-05T22:18:12.141Z,6.80
2022-08-05T22:20:41.630Z,6.50
2022-08-05T22:24:03.093Z,4.13
2022-08-05T22:26:35.483Z,5.18
2022-08-05T22:29:02.742Z,8.32
2022-08-05T22:31:44.441Z,3.42
2022-08-05T22:36:40.466Z,10.30
2022-08-05T22:39:09.779Z,4.90
2022-08-05T22:42:09.250Z,9.48
2022-08-05T22:44:26.996Z,10.23
2022-08-05T22:46:56.141Z,3.28
2022-08-05T22:50:20.672Z,9.57
2022-08-05T22:52:22.747Z,5.07
2022-08-05T22:54:59.850Z,6.32
2022-08-05T22:57:27.232Z,5.28
2022-08-05T23:00:03.437Z,6.32
2022-08-05T23:02:30.770Z,8.20
2022-08-05T23:05:01.766Z,5.35
2022-08-05T23:07:32.696Z,3.55
2022-08-05T23:10:12.120Z,4.22
2022-08-05T23:12:39.253Z,9.30
2022-08-05T23:15:08.908Z,4.35
2022-08-05T23:17:37.561Z,6.03
2022-08-05T23:20:24.590Z,6.53
2022-08-05T23:22:55.645Z,12.90
2022-08-05T23:25:51.590Z,7.07
2022-08-05T23:28:12.031Z,7.15
2022-08-05T23:30:43.303Z,6.53
2022-08-05T23:33:16.470Z,7.22
2022-08-05T23:35:49.606Z,7.65
2022-08-05T23:38:16.895Z,6.45
2022-08-05T23:40:49.863Z,9.32
2022-08-05T23:43:25.010Z,11.38
2022-08-05T23:46:04.768Z,7.25
2022-08-05T23:48:32.241Z,6.78
2022-08-05T23:51:00.007Z,8.98
2022-08-05T23:53:46.473Z,6.85
2022-08-05T23:56:14.272Z,7.88
2022-08-05T23:58:47.441Z,7.40
